Time;durP1;ratioP1;P1;durP2;ratioP2;P2;SDS_P1;SDS_P2;PMS_P1;PMS_P2;Temp;Humidity;BMP_temperature;BMP_pressure;BME280_temperature;BME280_humidity;BME280_pressure;Samples;Min_cycle;Max_cycle;Signal;HPM_P1;HPM_P2
2023/06/14 00:00:16;;;;;;;6.75;4.90;;;;;;;13.34;100.00;100115.81;5568198;32;34649;-68
2023/06/14 00:03:24;;;;;;;6.53;4.95;;;;;;;13.23;100.00;100116.31;5568061;32;34525;-68
2023/06/14 00:06:33;;;;;;;7.00;4.90;;;;;;;13.18;100.00;100114.22;5568108;32;33955;-68
2023/06/14 00:09:43;;;;;;;8.15;5.30;;;;;;;13.09;100.00;100107.34;5568051;32;34293;-68
2023/06/14 00:12:50;;;;;;;6.97;5.32;;;;;;;12.97;100.00;100109.69;5567968;32;34565;-68
2023/06/14 00:15:59;;;;;;;7.28;5.50;;;;;;;12.94;100.00;100114.56;5567941;32;33733;-68
2023/06/14 00:19:05;;;;;;;9.48;6.07;;;;;;;13.03;100.00;100108.94;5568165;32;34003;-69
2023/06/14 00:22:12;;;;;;;8.27;6.07;;;;;;;12.99;100.00;100112.16;5568267;32;33543;-69
2023/06/14 00:25:18;;;;;;;7.47;6.07;;;;;;;12.95;100.00;100117.06;5567143;32;33958;-68
2023/06/14 00:28:36;;;;;;;9.63;6.10;;;;;;;12.82;100.00;100116.91;5567890;32;34399;-69
2023/06/14 00:31:43;;;;;;;12.63;6.15;;;;;;;12.74;100.00;100116.19;5567904;32;33801;-69
2023/06/14 00:34:50;;;;;;;8.25;6.28;;;;;;;12.68;100.00;100119.63;5567821;32;33697;-68
2023/06/14 00:37:56;;;;;;;10.05;6.22;;;;;;;12.68;100.00;100124.94;5567770;32;34408;-68
2023/06/14 00:41:02;;;;;;;11.57;6.37;;;;;;;12.64;100.00;100124.47;5567744;32;34475;-69
2023/06/14 00:44:07;;;;;;;9.57;6.20;;;;;;;12.59;100.00;100119.72;5567647;32;33938;-68
2023/06/14 00:47:15;;;;;;;8.63;6.30;;;;;;;12.57;100.00;100120.94;5567677;32;33606;-68
2023/06/14 00:50:23;;;;;;;10.15;6.62;;;;;;;12.73;100.00;100127.88;5567452;32;33954;-69
2023/06/14 00:53:34;;;;;;;9.20;6.50;;;;;;;12.64;100.00;100130.62;5567746;32;34293;-68
2023/06/14 00:56:42;;;;;;;8.30;6.40;;;;;;;12.56;100.00;100124.59;5567346;32;34005;-68
2023/06/14 00:59:49;;;;;;;;;;;;;;;12.51;100.00;100129.66;5568253;32;33560;-69
2023/06/14 01:02:56;;;;;;;10.05;8.10;;;;;;;12.44;100.00;100132.22;5567992;32;33885;-69
2023/06/14 01:06:11;;;;;;;10.20;8.23;;;;;;;12.39;100.00;100118.66;5567747;32;33520;-68
2023/06/14 01:09:35;;;;;;;10.85;8.45;;;;;;;12.42;100.00;100131.59;5567579;32;33846;-69
2023/06/14 01:12:55;;;;;;;11.65;8.40;;;;;;;12.59;100.00;100118.87;5566723;32;33758;-69
2023/06/14 01:15:59;;;;;;;12.80;8.75;;;;;;;12.53;100.00;100124.97;5567512;32;33824;-68
2023/06/14 01:19:13;;;;;;;8.68;5.82;;;;;;;12.50;100.00;100122.66;5567519;32;33649;-68
2023/06/14 01:22:20;;;;;;;10.85;5.80;;;;;;;12.56;100.00;100120.09;5567442;32;33853;-68
2023/06/14 01:25:31;;;;;;;7.70;5.25;;;;;;;12.68;100.00;100112.47;5567570;32;34412;-68
2023/06/14 01:28:38;;;;;;;10.70;5.90;;;;;;;12.78;100.00;100114.81;5566835;32;33913;-69
2023/06/14 01:31:47;;;;;;;7.47;5.53;;;;;;;12.58;100.00;100104.78;5567499;32;33878;-68
2023/06/14 01:34:53;;;;;;;7.78;5.55;;;;;;;12.42;100.00;100118.28;5567295;32;33860;-68
2023/06/14 01:38:04;;;;;;;9.15;5.55;;;;;;;12.45;100.00;100104.59;5567366;32;34472;-68
2023/06/14 01:41:09;;;;;;;7.93;5.50;;;;;;;12.34;100.00;100118.41;5566409;32;33680;-68
2023/06/14 01:44:19;;;;;;;6.72;5.47;;;;;;;12.29;100.00;100122.63;5567337;32;33939;-69
2023/06/14 01:47:28;;;;;;;8.65;5.45;;;;;;;12.27;100.00;100128.13;5566440;32;33724;-68
2023/06/14 01:50:36;;;;;;;9.05;5.97;;;;;;;12.21;100.00;100120.88;5567095;32;33895;-69
2023/06/14 01:53:42;;;;;;;11.75;5.72;;;;;;;12.14;100.00;100119.97;5567081;32;33612;-68
2023/06/14 01:56:49;;;;;;;9.82;5.37;;;;;;;12.03;100.00;100123.09;5567081;32;33994;-68
2023/06/14 01:59:54;;;;;;;9.07;5.62;;;;;;;11.93;100.00;100117.22;5566995;32;34088;-69
2023/06/14 02:03:04;;;;;;;7.60;5.47;;;;;;;11.90;100.00;100128.22;5567258;32;33892;-69
2023/06/14 02:06:10;;;;;;;11.77;5.85;;;;;;;11.87;100.00;100134.72;5567045;32;33890;-68
2023/06/14 02:09:18;;;;;;;8.32;5.97;;;;;;;11.88;100.00;100127.56;5565704;32;33721;-68
2023/06/14 02:12:26;;;;;;;11.52;6.10;;;;;;;12.06;100.00;100131.50;5566883;32;34045;-68
2023/06/14 02:15:36;;;;;;;8.10;5.72;;;;;;;12.03;100.00;100139.88;5566562;32;33885;-68
2023/06/14 02:18:46;;;;;;;8.25;5.93;;;;;;;11.88;100.00;100130.22;5566831;32;33658;-68
2023/06/14 02:21:52;;;;;;;9.35;6.18;;;;;;;11.77;100.00;100134.16;5566771;32;34421;-68
2023/06/14 02:24:59;;;;;;;8.93;6.55;;;;;;;11.77;100.00;100134.97;5566719;32;34394;-68
2023/06/14 02:28:07;;;;;;;10.13;7.22;;;;;;;11.83;100.00;100136.09;5566696;32;33623;-68
2023/06/14 02:31:12;;;;;;;10.27;6.57;;;;;;;11.99;100.00;100135.94;5566416;32;34670;-69
2023/06/14 02:34:21;;;;;;;10.85;6.97;;;;;;;12.03;100.00;100137.22;5566401;32;33686;-68
2023/06/14 02:37:27;;;;;;;10.80;6.87;;;;;;;11.99;100.00;100137.75;5566434;32;34408;-68
2023/06/14 02:40:34;;;;;;;9.65;6.47;;;;;;;11.82;100.00;100142.41;5566083;32;34090;-68
2023/06/14 02:43:43;;;;;;;10.10;6.50;;;;;;;11.77;100.00;100137.62;5566368;32;33833;-68
2023/06/14 02:46:51;;;;;;;11.75;7.43;;;;;;;11.93;100.00;100135.81;5566307;32;34397;-68
2023/06/14 02:49:57;;;;;;;11.68;7.47;;;;;;;11.98;100.00;100130.78;5566092;32;33727;-69
2023/06/14 02:53:06;;;;;;;12.48;7.60;;;;;;;11.94;100.00;100130.34;5565495;32;33745;-68
2023/06/14 02:56:13;;;;;;;11.75;8.52;;;;;;;12.06;100.00;100126.19;5566054;32;34551;-68
2023/06/14 02:59:21;;;;;;;12.20;8.65;;;;;;;12.00;100.00;100124.28;5566033;32;34039;-68
2023/06/14 03:02:30;;;;;;;11.48;7.82;;;;;;;11.98;100.00;100126.28;5565022;32;34637;-68
2023/06/14 03:05:40;;;;;;;11.68;7.68;;;;;;;11.89;100.00;100123.91;5565977;32;33930;-68
2023/06/14 03:08:48;;;;;;;12.88;8.27;;;;;;;11.82;100.00;100129.13;5565870;32;34310;-69
2023/06/14 03:11:55;;;;;;;13.82;8.10;;;;;;;11.74;100.00;100127.38;5565741;32;33813;-68
2023/06/14 03:15:04;;;;;;;12.53;7.90;;;;;;;11.70;100.00;100131.38;5565681;32;34120;-68
2023/06/14 03:18:12;;;;;;;12.02;8.48;;;;;;;11.68;100.00;100135.22;5565732;32;33588;-68
2023/06/14 03:21:20;;;;;;;15.35;8.35;;;;;;;11.65;100.00;100122.28;5566886;32;34616;-69
2023/06/14 03:24:31;;;;;;;11.93;8.00;;;;;;;11.68;100.00;100128.06;5568604;32;33759;-68
2023/06/14 03:27:38;;;;;;;12.70;8.82;;;;;;;11.74;100.00;100129.22;5568326;32;33853;-68
2023/06/14 03:30:45;;;;;;;12.05;8.43;;;;;;;11.79;100.00;100131.31;5568175;32;33886;-67
2023/06/14 03:33:51;;;;;;;11.05;8.10;;;;;;;11.92;100.00;100132.34;5567389;32;34748;-68
2023/06/14 03:36:58;;;;;;;14.63;8.20;;;;;;;12.02;100.00;100132.06;5568166;32;33794;-68
2023/06/14 03:40:06;;;;;;;14.73;8.15;;;;;;;12.08;100.00;100134.81;5568221;32;33717;-68
2023/06/14 03:43:14;;;;;;;10.50;7.90;;;;;;;12.15;100.00;100135.72;5567223;32;33947;-68
2023/06/14 03:46:23;;;;;;;13.75;8.13;;;;;;;12.19;100.00;100139.69;5568180;32;33622;-68
2023/06/14 03:49:30;;;;;;;12.00;8.18;;;;;;;12.21;100.00;100142.16;5568252;32;33495;-69
2023/06/14 03:52:38;;;;;;;11.20;7.95;;;;;;;12.30;100.00;100145.53;5568119;32;34492;-69
2023/06/14 03:55:48;;;;;;;17.95;8.73;;;;;;;12.37;100.00;100138.47;5567317;32;33923;-69
2023/06/14 03:58:58;;;;;;;12.30;8.27;;;;;;;12.43;100.00;100137.75;5567100;32;33940;-69
2023/06/14 04:02:06;;;;;;;12.70;8.95;;;;;;;12.65;100.00;100144.75;5567729;32;33821;-69
2023/06/14 04:05:16;;;;;;;12.75;9.15;;;;;;;12.81;100.00;100152.53;5567924;32;34442;-69
2023/06/14 04:08:21;;;;;;;13.30;8.73;;;;;;;12.90;100.00;100148.75;5567931;32;34296;-69
2023/06/14 04:11:28;;;;;;;12.30;8.77;;;;;;;12.97;100.00;100149.63;5567752;32;34430;-69
2023/06/14 04:14:35;;;;;;;12.20;8.27;;;;;;;13.01;100.00;100152.75;5567951;32;33851;-69
2023/06/14 04:17:42;;;;;;;18.17;9.05;;;;;;;13.10;100.00;100153.44;5567874;32;33728;-69
2023/06/14 04:20:48;;;;;;;15.20;9.48;;;;;;;13.24;100.00;100157.94;5574744;31;33770;-69
2023/06/14 04:23:55;;;;;;;16.23;9.45;;;;;;;13.27;100.00;100161.03;5585430;31;34789;-69
2023/06/14 04:26:59;;;;;;;12.90;9.18;;;;;;;13.33;100.00;100168.25;5585388;31;34491;-69
2023/06/14 04:30:05;;;;;;;12.25;9.27;;;;;;;13.44;100.00;100170.44;5586713;31;33937;-69
2023/06/14 04:33:11;;;;;;;16.25;9.70;;;;;;;13.57;100.00;100169.72;5585585;31;33858;-69
2023/06/14 04:36:17;;;;;;;13.20;9.30;;;;;;;13.70;100.00;100172.47;5586752;31;34090;-69
2023/06/14 04:39:22;;;;;;;11.85;9.00;;;;;;;13.77;100.00;100173.38;5586027;31;34482;-69
2023/06/14 04:42:30;;;;;;;13.98;9.23;;;;;;;13.90;100.00;100168.12;5586768;31;33795;-69
2023/06/14 04:45:36;;;;;;;13.85;9.27;;;;;;;14.03;100.00;100164.75;5584270;31;33840;-69
2023/06/14 04:48:45;;;;;;;14.10;9.82;;;;;;;14.15;100.00;100167.66;5577883;31;34409;-68
2023/06/14 04:51:57;;;;;;;13.05;9.75;;;;;;;14.18;100.00;100173.47;5585624;31;33618;-68
2023/06/14 04:55:01;;;;;;;16.10;9.48;;;;;;;14.41;100.00;100167.84;5586381;31;34247;-68
2023/06/14 04:58:04;;;;;;;14.85;10.30;;;;;;;14.50;100.00;100166.66;5586935;31;34414;-68
2023/06/14 05:01:09;;;;;;;15.43;9.43;;;;;;;14.57;100.00;100170.19;5585431;31;33594;-68
2023/06/14 05:04:13;;;;;;;14.65;9.40;;;;;;;14.70;100.00;100174.78;5579552;31;33804;-69
2023/06/14 05:07:17;;;;;;;14.35;9.73;;;;;;;14.85;100.00;100177.28;5585829;31;34145;-68
2023/06/14 05:10:21;;;;;;;18.73;9.57;;;;;;;14.91;100.00;100182.63;5584350;31;34492;-69
2023/06/14 05:13:27;;;;;;;13.15;9.13;;;;;;;15.04;100.00;100181.88;5586227;31;33788;-69
2023/06/14 05:16:31;;;;;;;10.90;8.57;;;;;;;15.21;100.00;100175.94;5585667;31;33891;-68
2023/06/14 05:19:35;;;;;;;11.35;8.43;;;;;;;15.35;100.00;100176.78;5583685;31;34473;-68
2023/06/14 05:22:40;;;;;;;13.85;8.93;;;;;;;15.51;100.00;100180.94;5585778;31;33632;-69
2023/06/14 05:25:47;;;;;;;13.55;9.00;;;;;;;15.76;100.00;100182.00;5585636;31;33838;-69
2023/06/14 05:28:52;;;;;;;13.70;8.48;;;;;;;16.00;100.00;100180.53;5586130;31;33564;-69
2023/06/14 05:31:58;;;;;;;17.12;9.38;;;;;;;15.77;100.00;100178.31;5585159;31;33821;-69
2023/06/14 05:35:03;;;;;;;13.68;8.48;;;;;;;15.52;100.00;100180.75;5586450;31;33752;-69
2023/06/14 05:38:07;;;;;;;12.80;8.52;;;;;;;15.62;100.00;100175.84;5585253;31;35064;-68
2023/06/14 05:41:11;;;;;;;15.18;8.60;;;;;;;15.73;100.00;100185.09;5586294;31;33671;-70
2023/06/14 05:44:17;;;;;;;11.43;8.18;;;;;;;15.72;100.00;100179.94;5586213;31;33536;-68
2023/06/14 05:47:21;;;;;;;13.82;9.00;;;;;;;15.65;100.00;100185.28;5586125;31;33631;-69
2023/06/14 05:50:28;;;;;;;14.27;8.77;;;;;;;15.82;100.00;100183.84;5585397;31;34267;-70
2023/06/14 05:53:33;;;;;;;15.30;8.90;;;;;;;15.79;100.00;100181.56;5584387;31;34243;-70
2023/06/14 05:56:38;;;;;;;14.95;8.77;;;;;;;15.96;100.00;100182.81;5570219;31;34522;-70
2023/06/14 05:59:42;;;;;;;22.90;9.30;;;;;;;16.11;100.00;100185.28;5581043;31;34650;-68
2023/06/14 06:02:48;;;;;;;19.10;8.52;;;;;;;16.51;100.00;100191.31;5569370;31;34004;-68
2023/06/14 06:05:53;;;;;;;39.47;8.77;;;;;;;16.64;100.00;100185.97;5567231;31;33061;-69
2023/06/14 06:08:58;;;;;;;22.08;8.02;;;;;;;17.06;100.00;100187.22;5583348;31;33779;-69
2023/06/14 06:12:06;;;;;;;15.93;7.62;;;;;;;17.04;100.00;100189.28;5576524;31;34351;-69
2023/06/14 06:15:14;;;;;;;13.43;7.55;;;;;;;17.12;100.00;100183.69;5580084;31;34585;-70
2023/06/14 06:18:19;;;;;;;16.17;8.03;;;;;;;17.17;100.00;100189.22;5585545;31;33710;-70
2023/06/14 06:21:23;;;;;;;20.90;7.60;;;;;;;17.32;100.00;100188.94;5582647;31;33776;-70
2023/06/14 06:24:27;;;;;;;11.57;7.07;;;;;;;17.42;100.00;100188.47;5578570;31;34010;-70
2023/06/14 06:27:31;;;;;;;31.77;8.02;;;;;;;17.53;100.00;100193.94;5582483;31;33695;-71
2023/06/14 06:30:36;;;;;;;14.43;7.03;;;;;;;17.65;100.00;100191.41;5585815;31;33598;-69
2023/06/14 06:33:39;;;;;;;17.42;7.18;;;;;;;17.78;100.00;100192.13;5582920;31;33271;-70
2023/06/14 06:36:42;;;;;;;12.45;7.62;;;;;;;18.11;100.00;100193.69;5576804;31;33788;-70
2023/06/14 06:39:45;;;;;;;11.75;7.90;;;;;;;18.14;100.00;100199.44;5581925;31;34210;-70
2023/06/14 06:42:50;;;;;;;12.55;7.60;;;;;;;18.33;100.00;100196.78;5578660;31;34131;-70
2023/06/14 06:45:53;;;;;;;10.63;7.55;;;;;;;17.96;100.00;100204.75;5566686;31;32392;-70
2023/06/14 06:48:58;;;;;;;16.98;7.85;;;;;;;17.93;100.00;100199.03;5580419;31;34295;-70
2023/06/14 06:52:06;;;;;;;13.98;7.45;;;;;;;18.05;100.00;100194.59;5574757;31;33886;-69
2023/06/14 06:55:11;;;;;;;12.20;7.53;;;;;;;18.90;100.00;100190.97;5582831;31;34674;-71
2023/06/14 06:58:15;;;;;;;12.45;7.30;;;;;;;18.73;100.00;100186.44;5584215;31;33927;-71
2023/06/14 07:01:19;;;;;;;13.57;7.35;;;;;;;18.13;100.00;100186.25;5573906;31;33864;-70
2023/06/14 07:04:23;;;;;;;12.30;7.45;;;;;;;18.64;100.00;100186.75;5588117;31;33970;-70
2023/06/14 07:07:27;;;;;;;11.00;7.15;;;;;;;19.32;100.00;100185.63;5575285;31;33923;-70
2023/06/14 07:10:31;;;;;;;13.23;6.80;;;;;;;20.14;89.62;100187.41;5570390;31;34267;-70
2023/06/14 07:13:36;;;;;;;11.98;6.28;;;;;;;19.87;88.66;100187.06;5576685;31;34478;-70
2023/06/14 07:16:41;;;;;;;9.07;6.07;;;;;;;19.81;88.91;100198.75;5575586;31;34864;-71
2023/06/14 07:19:46;;;;;;;14.25;5.78;;;;;;;19.97;87.17;100197.25;5581063;31;33859;-70
2023/06/14 07:22:50;;;;;;;10.90;6.03;;;;;;;20.11;84.34;100201.38;5577966;31;34505;-71
2023/06/14 07:25:54;;;;;;;20.75;6.03;;;;;;;19.84;84.62;100200.19;5586227;31;33696;-70
2023/06/14 07:28:57;;;;;;;11.98;6.20;;;;;;;20.33;85.92;100198.94;5581282;31;34138;-69
2023/06/14 07:32:02;;;;;;;12.68;5.82;;;;;;;20.34;76.57;100195.16;5586786;31;33733;-71
2023/06/14 07:35:07;;;;;;;11.00;6.15;;;;;;;20.32;76.96;100190.03;5570346;31;33818;-70
2023/06/14 07:38:11;;;;;;;9.60;5.62;;;;;;;20.20;79.67;100194.56;5574742;31;34604;-71
2023/06/14 07:41:16;;;;;;;14.65;5.70;;;;;;;20.85;77.21;100197.06;5577251;31;34150;-71
2023/06/14 07:44:21;;;;;;;9.27;5.00;;;;;;;21.52;70.59;100202.66;5574401;31;34555;-71
2023/06/14 07:47:25;;;;;;;8.15;5.05;;;;;;;22.02;67.04;100205.44;5575698;31;33922;-71
2023/06/14 07:50:30;;;;;;;8.32;5.20;;;;;;;22.17;64.76;100216.47;5573775;31;33966;-70
2023/06/14 07:53:35;;;;;;;9.38;5.22;;;;;;;21.57;67.98;100211.69;5567299;32;34546;-71
2023/06/14 07:56:38;;;;;;;17.77;5.22;;;;;;;21.93;67.23;100217.69;5570135;31;33819;-71
2023/06/14 07:59:45;;;;;;;10.95;5.10;;;;;;;22.30;65.71;100213.41;5584629;31;33586;-68
2023/06/14 08:02:48;;;;;;;8.38;4.53;;;;;;;22.20;62.32;100218.66;5587028;31;33497;-69
2023/06/14 08:05:52;;;;;;;14.55;4.80;;;;;;;22.15;60.59;100221.28;5587224;31;33917;-69
2023/06/14 08:08:56;;;;;;;12.95;5.05;;;;;;;21.94;62.42;100219.31;5585792;31;33855;-69
2023/06/14 08:12:02;;;;;;;12.60;4.90;;;;;;;22.75;60.78;100210.50;5586667;31;33764;-70
2023/06/14 08:15:07;;;;;;;7.25;4.62;;;;;;;22.78;59.36;100220.03;5584402;31;32143;-69
2023/06/14 08:18:17;;;;;;;11.05;5.47;;;;;;;22.49;59.85;100208.53;5577987;31;33694;-70
2023/06/14 08:21:21;;;;;;;12.82;5.00;;;;;;;22.87;56.42;100216.63;5576550;31;32875;-70
2023/06/14 08:24:26;;;;;;;13.88;5.00;;;;;;;23.97;55.92;100212.59;5581965;31;33790;-69
2023/06/14 08:27:30;;;;;;;8.88;5.07;;;;;;;24.78;51.86;100215.84;5566331;31;33804;-70
2023/06/14 08:30:35;;;;;;;10.07;4.80;;;;;;;25.23;49.99;100211.66;5572265;31;33736;-70
2023/06/14 08:33:42;;;;;;;8.45;4.60;;;;;;;25.21;48.92;100208.41;5586959;31;34417;-69
2023/06/14 08:36:47;;;;;;;7.20;4.55;;;;;;;25.12;48.11;100221.69;5586780;31;33536;-68
2023/06/14 08:39:50;;;;;;;17.52;5.45;;;;;;;24.85;50.40;100221.00;5578000;31;33759;-70
2023/06/14 08:42:55;;;;;;;14.35;4.80;;;;;;;25.14;48.72;100224.13;5571631;31;33823;-70
2023/06/14 08:46:06;;;;;;;18.25;4.60;;;;;;;24.02;53.15;100225.34;5583990;31;33780;-70
2023/06/14 08:49:14;;;;;;;14.05;5.43;;;;;;;23.91;52.00;100227.19;5579246;31;33812;-70
2023/06/14 08:52:20;;;;;;;16.50;4.68;;;;;;;22.66;54.48;100230.09;5569190;31;34017;-69
2023/06/14 08:55:27;;;;;;;9.13;4.47;;;;;;;22.65;55.22;100236.59;5578837;31;33749;-69
2023/06/14 08:58:33;;;;;;;15.02;4.97;;;;;;;23.04;54.21;100243.63;5585639;31;33639;-67
2023/06/14 09:01:37;;;;;;;13.35;5.03;;;;;;;22.67;56.56;100245.25;5586876;31;34181;-68
2023/06/14 09:04:40;;;;;;;12.90;4.60;;;;;;;22.62;58.51;100251.44;5586669;31;34840;-68
2023/06/14 09:07:44;;;;;;;8.82;4.50;;;;;;;22.63;55.32;100255.78;5586471;31;34477;-68
2023/06/14 09:10:47;;;;;;;8.35;4.05;;;;;;;22.70;53.76;100253.75;5585372;31;34138;-68
2023/06/14 09:13:52;;;;;;;49.13;6.07;;;;;;;22.54;54.56;100254.56;5566896;31;34001;-68
2023/06/14 09:16:56;;;;;;;14.57;5.18;;;;;;;22.95;55.78;100247.81;5581596;31;34186;-68
2023/06/14 09:20:00;;;;;;;6.03;4.22;;;;;;;22.66;56.35;100255.25;5576849;31;33601;-71
2023/06/14 09:23:05;;;;;;;16.60;4.70;;;;;;;23.02;52.57;100253.87;5600462;31;34764;-69
2023/06/14 09:26:19;;;;;;;13.55;4.40;;;;;;;22.50;54.01;100261.53;5582200;31;34806;-68
2023/06/14 09:29:24;;;;;;;9.93;4.75;;;;;;;22.77;54.22;100261.66;5580521;31;34463;-70
2023/06/14 09:32:30;;;;;;;7.57;4.60;;;;;;;22.20;54.19;100252.97;5585040;31;34254;-70
2023/06/14 09:35:35;;;;;;;9.38;4.55;;;;;;;22.50;54.10;100253.44;5573278;31;34004;-68
2023/06/14 09:38:41;;;;;;;5.85;3.70;;;;;;;22.33;54.56;100250.75;5579520;31;33645;-70
2023/06/14 09:41:44;;;;;;;12.18;4.40;;;;;;;22.41;53.73;100244.91;5582223;31;33558;-67
2023/06/14 09:44:49;;;;;;;13.00;4.28;;;;;;;22.53;53.67;100248.34;5568008;31;34151;-69
2023/06/14 09:47:54;;;;;;;13.88;3.97;;;;;;;23.10;52.88;100236.38;5584139;31;34510;-68
2023/06/14 09:51:02;;;;;;;11.88;3.72;;;;;;;25.95;47.20;100231.31;5581423;31;33595;-69
2023/06/14 09:54:08;;;;;;;8.68;3.90;;;;;;;27.32;42.84;100238.28;5571261;31;34830;-69
2023/06/14 09:57:45;;;;;;;12.82;3.35;;;;;;;29.58;38.64;100234.34;5569409;31;33783;-72
2023/06/14 10:00:51;;;;;;;7.00;3.50;;;;;;;29.50;37.23;100234.22;5551509;32;34013;-70
2023/06/14 10:04:06;;;;;;;8.77;3.08;;;;;;;29.29;35.44;100228.19;5566612;32;33830;-71
2023/06/14 10:07:20;;;;;;;6.95;2.83;;;;;;;30.89;32.95;100231.19;5568939;31;34342;-70
2023/06/14 10:10:24;;;;;;;4.75;2.37;;;;;;;30.72;30.44;100227.47;5568308;31;34662;-70
2023/06/14 10:13:32;;;;;;;5.85;2.40;;;;;;;31.72;29.30;100224.44;5585160;31;34247;-71
2023/06/14 10:16:47;;;;;;;8.75;2.80;;;;;;;32.68;29.24;100223.87;5584906;31;32991;-71
2023/06/14 10:20:07;;;;;;;4.12;2.17;;;;;;;30.54;30.85;100219.06;5586213;31;34310;-71
2023/06/14 10:23:18;;;;;;;7.62;2.75;;;;;;;31.11;28.63;100214.06;5567401;31;34406;-70
2023/06/14 10:26:24;;;;;;;4.90;2.75;;;;;;;31.42;28.77;100212.25;5576610;31;32183;-69
2023/06/14 10:29:31;;;;;;;10.20;2.75;;;;;;;31.99;27.33;100212.53;5574090;31;34479;-71
2023/06/14 10:33:06;;;;;;;3.95;2.80;;;;;;;31.72;27.81;100215.41;5574842;31;33875;-70
2023/06/14 10:36:27;;;;;;;4.57;2.42;;;;;;;31.33;28.21;100196.84;5575120;31;34761;-70
2023/06/14 10:39:37;;;;;;;6.35;2.47;;;;;;;34.53;26.61;100200.03;5571720;31;33827;-71
2023/06/14 10:42:51;;;;;;;3.65;2.25;;;;;;;33.42;26.11;100205.44;5570131;31;33888;-70
2023/06/14 10:46:13;;;;;;;3.83;2.62;;;;;;;29.07;31.31;100193.28;5570927;31;33999;-70
2023/06/14 10:49:36;;;;;;;2.95;2.42;;;;;;;28.38;32.32;100200.09;5577125;31;34114;-69
2023/06/14 10:52:43;;;;;;;7.43;2.87;;;;;;;28.54;30.87;100203.47;5576573;31;35233;-70
2023/06/14 10:55:51;;;;;;;3.60;2.45;;;;;;;27.44;33.85;100203.37;5574742;31;33685;-70
2023/06/14 10:58:57;;;;;;;8.85;2.65;;;;;;;27.23;34.22;100189.06;5574089;31;33709;-69
2023/06/14 11:02:38;;;;;;;4.37;2.87;;;;;;;26.07;37.18;100186.72;5577079;31;33654;-69
2023/06/14 11:05:53;;;;;;;7.62;2.92;;;;;;;24.99;41.57;100184.16;5575464;31;34529;-69
2023/06/14 11:08:57;;;;;;;6.60;3.00;;;;;;;24.49;45.27;100187.50;5571773;31;34458;-69
2023/06/14 11:12:02;;;;;;;5.00;2.92;;;;;;;24.37;42.34;100193.09;5574123;31;33767;-68
2023/06/14 11:15:06;;;;;;;8.75;3.10;;;;;;;25.70;40.98;100187.84;5570977;31;34984;-69
2023/06/14 11:18:13;;;;;;;3.60;2.33;;;;;;;27.10;37.13;100185.06;5575007;31;33936;-70
2023/06/14 11:21:18;;;;;;;9.65;3.12;;;;;;;26.61;37.19;100189.63;5574896;31;34051;-69
2023/06/14 11:24:21;;;;;;;4.62;2.37;;;;;;;26.67;37.44;100183.06;5573773;31;33799;-68
2023/06/14 11:27:27;;;;;;;6.85;2.47;;;;;;;26.75;37.05;100179.75;5574840;31;33600;-68
2023/06/14 11:30:31;;;;;;;4.93;2.33;;;;;;;29.01;34.93;100179.97;5569721;31;34249;-69
2023/06/14 11:33:35;;;;;;;5.65;2.50;;;;;;;29.59;32.43;100185.97;5566443;32;35241;-68
2023/06/14 11:36:40;;;;;;;5.50;2.80;;;;;;;27.80;35.05;100172.03;5564390;32;34538;-69
2023/06/14 11:39:45;;;;;;;6.50;2.58;;;;;;;27.72;36.14;100169.91;5563818;32;34626;-69
2023/06/14 11:42:48;;;;;;;12.73;2.53;;;;;;;28.23;35.82;100174.91;5566707;32;33583;-69
2023/06/14 11:45:53;;;;;;;6.07;2.50;;;;;;;30.55;32.63;100185.06;5567942;32;34647;-69
2023/06/14 11:49:10;;;;;;;6.43;2.60;;;;;;;29.90;33.22;100187.13;5567630;32;33910;-69
2023/06/14 11:52:14;;;;;;;8.50;2.47;;;;;;;34.29;27.55;100186.84;5567647;32;34711;-70
2023/06/14 11:55:18;;;;;;;4.87;2.62;;;;;;;33.06;28.98;100172.72;5568120;32;34486;-69
2023/06/14 11:58:21;;;;;;;7.35;2.70;;;;;;;33.30;29.48;100183.28;5579776;31;34899;-70
2023/06/14 12:01:25;;;;;;;6.82;2.75;;;;;;;31.13;32.31;100178.94;5587478;31;33681;-69
2023/06/14 12:04:29;;;;;;;9.57;3.08;;;;;;;31.00;31.88;100180.56;5587409;31;33904;-69
2023/06/14 12:07:33;;;;;;;8.35;2.87;;;;;;;29.40;34.22;100176.97;5587450;31;33609;-69
2023/06/14 12:10:43;;;;;;;5.55;2.55;;;;;;;29.51;34.50;100183.91;5584956;31;34333;-70
2023/06/14 12:13:48;;;;;;;8.27;2.90;;;;;;;31.22;31.90;100188.06;5585083;31;32270;-68
2023/06/14 12:17:05;;;;;;;9.18;2.95;;;;;;;31.00;31.90;100193.44;5587164;31;33984;-70
2023/06/14 12:20:21;;;;;;;8.15;3.10;;;;;;;29.11;35.13;100185.28;5586433;31;34535;-69
2023/06/14 12:23:38;;;;;;;4.22;2.83;;;;;;;27.51;37.73;100177.44;5586681;31;33842;-68
2023/06/14 12:26:42;;;;;;;7.85;3.12;;;;;;;28.54;35.87;100176.19;5587015;31;34550;-68
2023/06/14 12:29:46;;;;;;;4.85;2.87;;;;;;;28.98;34.17;100183.31;5587839;31;33756;-69
2023/06/14 12:32:51;;;;;;;7.28;2.80;;;;;;;30.59;32.12;100185.28;5586434;31;34440;-68
2023/06/14 12:35:57;;;;;;;5.28;2.42;;;;;;;30.22;32.33;100189.81;5584542;31;33813;-68
2023/06/14 12:39:00;;;;;;;8.75;2.67;;;;;;;33.33;28.23;100188.12;5574882;31;34014;-69
2023/06/14 12:42:04;;;;;;;5.45;2.40;;;;;;;32.58;28.95;100182.94;5587147;31;33837;-68
2023/06/14 12:45:07;;;;;;;8.43;2.58;;;;;;;29.29;31.77;100190.75;5587216;31;34760;-70
2023/06/14 12:48:12;;;;;;;10.27;2.90;;;;;;;27.74;35.25;100181.34;5586186;31;33818;-69
2023/06/14 12:51:16;;;;;;;6.15;2.55;;;;;;;26.98;36.01;100184.56;5585891;31;33860;-70
2023/06/14 12:54:22;;;;;;;4.95;2.50;;;;;;;28.50;33.62;100189.63;5584799;31;34865;-69
2023/06/14 12:57:43;;;;;;;5.45;2.50;;;;;;;29.69;31.09;100178.41;5586886;31;34465;-69
2023/06/14 13:00:47;;;;;;;4.85;2.40;;;;;;;30.06;31.26;100180.28;5577899;31;34251;-68
2023/06/14 13:03:53;;;;;;;7.82;2.35;;;;;;;31.02;30.53;100183.84;5585728;31;34536;-68
2023/06/14 13:06:59;;;;;;;7.60;2.30;;;;;;;30.64;30.72;100174.25;5586683;31;33789;-68
2023/06/14 13:10:03;;;;;;;7.90;2.65;;;;;;;29.33;31.78;100163.69;5572687;31;34508;-67
2023/06/14 13:13:08;;;;;;;7.35;2.62;;;;;;;27.00;34.79;100166.06;5580422;31;35114;-67
2023/06/14 13:16:13;;;;;;;4.37;2.30;;;;;;;25.21;37.60;100165.78;5584478;31;34125;-68
2023/06/14 13:19:18;;;;;;;6.10;2.83;;;;;;;24.35;39.56;100161.94;5584288;31;34735;-68
2023/06/14 13:22:21;;;;;;;5.35;2.45;;;;;;;24.59;39.11;100163.91;5586483;31;33690;-67
2023/06/14 13:25:25;;;;;;;5.12;2.58;;;;;;;24.30;39.46;100162.72;5582878;31;34212;-67
2023/06/14 13:28:31;;;;;;;5.80;2.62;;;;;;;24.04;40.55;100155.47;5575506;31;34106;-67
2023/06/14 13:31:35;;;;;;;4.50;2.50;;;;;;;24.48;39.80;100166.88;5571017;31;34491;-68
2023/06/14 13:34:38;;;;;;;6.18;2.60;;;;;;;24.20;38.87;100160.75;5570110;31;34209;-67
2023/06/14 13:37:42;;;;;;;8.50;2.62;;;;;;;24.57;38.00;100159.84;5582466;31;33436;-67
2023/06/14 13:40:47;;;;;;;5.62;2.67;;;;;;;24.57;38.91;100157.97;5572008;31;31738;-68
2023/06/14 13:43:51;;;;;;;3.72;2.40;;;;;;;24.37;38.07;100157.03;5578530;31;33929;-68
2023/06/14 13:46:55;;;;;;;3.42;2.30;;;;;;;24.48;38.85;100151.41;5579700;31;33100;-67
2023/06/14 13:50:00;;;;;;;3.40;2.10;;;;;;;24.37;38.22;100151.63;5579423;31;33820;-68
2023/06/14 13:53:04;;;;;;;7.30;2.50;;;;;;;26.06;34.49;100145.13;5582299;31;34894;-68
2023/06/14 13:56:09;;;;;;;5.62;2.30;;;;;;;27.98;32.33;100157.66;5580466;31;34085;-68
2023/06/14 13:59:13;;;;;;;2.87;2.15;;;;;;;27.65;33.72;100142.16;5574836;31;33719;-69
2023/06/14 14:02:18;;;;;;;7.87;2.62;;;;;;;28.71;31.37;100153.88;5570369;31;33773;-68
2023/06/14 14:05:28;;;;;;;29.77;3.30;;;;;;;27.27;32.84;100157.41;5582885;31;34571;-68
2023/06/14 14:08:32;;;;;;;6.55;2.40;;;;;;;28.31;33.14;100155.19;5575447;31;33698;-68
2023/06/14 14:11:36;;;;;;;4.70;2.40;;;;;;;26.85;33.93;100157.12;5574777;31;33605;-69
2023/06/14 14:14:39;;;;;;;5.45;2.30;;;;;;;26.14;35.34;100149.19;5585713;31;34165;-69
2023/06/14 14:17:47;;;;;;;3.42;2.15;;;;;;;25.52;35.95;100153.03;5582871;31;34509;-69